createdAt,value
2022-11-17T00:01:11.641Z,24.64
2022-11-17T00:03:38.188Z,24.65
2022-11-17T00:06:04.354Z,24.64
2022-11-17T00:08:30.703Z,24.64
2022-11-17T00:10:57.044Z,24.62
2022-11-17T00:13:23.420Z,24.63
2022-11-17T00:15:49.768Z,24.62
2022-11-17T00:18:16.115Z,24.61
2022-11-17T00:20:42.458Z,24.61
2022-11-17T00:23:08.810Z,24.59
2022-11-17T00:25:35.172Z,24.60
2022-11-17T00:28:01.517Z,24.59
2022-11-17T00:30:29.176Z,24.59
2022-11-17T00:32:54.240Z,24.60
2022-11-17T00:35:20.583Z,24.60
2022-11-17T00:37:46.966Z,24.60
2022-11-17T00:40:13.345Z,24.58
2022-11-17T00:42:39.693Z,24.58
2022-11-17T00:45:06.034Z,24.58
2022-11-17T00:47:32.391Z,24.59
2022-11-17T00:49:58.733Z,24.57
2022-11-17T00:52:25.089Z,24.56
2022-11-17T00:54:51.437Z,24.56
2022-11-17T00:57:17.843Z,24.58
2022-11-17T00:59:44.163Z,24.57
2022-11-17T01:02:10.515Z,24.55
2022-11-17T01:04:36.884Z,24.55
2022-11-17T01:07:03.282Z,24.55
2022-11-17T01:09:29.574Z,24.54
2022-11-17T01:11:55.953Z,24.55
2022-11-17T01:17:04.576Z,24.53
2022-11-17T01:19:30.953Z,24.55
2022-11-17T01:21:57.306Z,24.51
2022-11-17T01:24:23.653Z,24.54
2022-11-17T01:26:49.992Z,24.56
2022-11-17T01:29:16.368Z,24.53
2022-11-17T01:31:43.695Z,24.53
2022-11-17T01:34:09.069Z,24.54
2022-11-17T01:36:35.411Z,24.53
2022-11-17T01:39:01.766Z,24.50
2022-11-17T01:41:28.119Z,24.53
2022-11-17T01:43:54.463Z,24.50
2022-11-17T01:46:20.805Z,24.50
2022-11-17T01:48:47.152Z,24.51
2022-11-17T01:51:13.494Z,24.49
2022-11-17T01:53:39.852Z,24.49
2022-11-17T01:56:06.196Z,24.48
2022-11-17T01:58:32.544Z,24.50
2022-11-17T02:00:58.933Z,24.49
2022-11-17T02:03:25.280Z,24.49
2022-11-17T02:05:51.622Z,24.48
2022-11-17T02:08:18.011Z,24.47
2022-11-17T02:10:48.674Z,24.46
2022-11-17T02:13:10.693Z,24.45
2022-11-17T02:15:37.033Z,24.47
2022-11-17T02:18:03.437Z,24.46
2022-11-17T02:20:29.773Z,24.47
2022-11-17T02:22:56.161Z,24.45
2022-11-17T02:25:26.860Z,24.47
2022-11-17T02:27:48.925Z,24.47
2022-11-17T02:30:15.330Z,24.45
2022-11-17T02:32:41.655Z,24.45
2022-11-17T02:35:08.000Z,24.45
2022-11-17T02:37:34.350Z,24.44
2022-11-17T02:40:00.702Z,24.46
2022-11-17T02:42:27.080Z,24.45
2022-11-17T02:44:53.427Z,24.42
2022-11-17T02:47:22.218Z,24.44
2022-11-17T02:49:48.564Z,24.45
2022-11-17T02:52:14.916Z,24.44
2022-11-17T02:54:41.395Z,24.42
2022-11-17T02:57:07.743Z,24.43
2022-11-17T02:59:34.090Z,24.43
2022-11-17T03:02:01.828Z,24.41
2022-11-17T03:04:26.799Z,24.41
2022-11-17T03:06:53.174Z,24.38
2022-11-17T03:09:19.493Z,24.36
2022-11-17T03:11:45.840Z,24.35
2022-11-17T03:14:12.185Z,24.36
2022-11-17T03:16:38.543Z,24.35
2022-11-17T03:19:04.887Z,24.34
2022-11-17T03:21:31.260Z,24.35
2022-11-17T03:23:57.603Z,24.34
2022-11-17T03:26:23.967Z,24.35
2022-11-17T03:28:50.316Z,24.35
2022-11-17T03:31:16.667Z,24.34
2022-11-17T03:33:43.015Z,24.31
2022-11-17T03:36:09.363Z,24.31
2022-11-17T03:38:35.711Z,24.28
2022-11-17T03:41:02.065Z,24.28
2022-11-17T03:43:28.404Z,24.30
2022-11-17T03:45:55.957Z,24.29
2022-11-17T03:48:21.122Z,24.32
2022-11-17T03:50:47.482Z,24.30
2022-11-17T03:53:13.826Z,24.29
2022-11-17T03:55:40.184Z,24.30
2022-11-17T03:58:06.536Z,24.30
2022-11-17T04:00:32.885Z,24.31
2022-11-17T04:02:59.248Z,24.30
2022-11-17T04:05:25.583Z,24.30
2022-11-17T04:07:51.936Z,24.34
2022-11-17T04:10:18.286Z,24.32
2022-11-17T04:12:44.633Z,24.29
2022-11-17T04:15:10.995Z,24.31
2022-11-17T04:17:37.341Z,24.32
2022-11-17T04:20:03.691Z,24.29
2022-11-17T04:22:30.039Z,24.26
2022-11-17T04:24:56.387Z,24.29
2022-11-17T04:27:22.745Z,24.31
2022-11-17T04:29:49.087Z,24.31
2022-11-17T04:32:15.430Z,24.29
2022-11-17T04:34:41.778Z,24.29
2022-11-17T04:37:08.402Z,24.30
2022-11-17T04:39:34.466Z,24.29
2022-11-17T04:42:00.811Z,24.28
2022-11-17T04:44:27.158Z,24.27
2022-11-17T04:46:53.511Z,24.32
2022-11-17T04:49:19.845Z,24.33
2022-11-17T04:51:46.202Z,24.32
2022-11-17T04:54:12.551Z,24.30
2022-11-17T04:56:38.899Z,24.30
2022-11-17T04:59:05.232Z,24.34
2022-11-17T05:01:31.591Z,24.34
2022-11-17T05:03:57.935Z,24.34
2022-11-17T05:06:24.353Z,24.33
2022-11-17T05:08:50.697Z,24.35
2022-11-17T05:11:17.123Z,24.35
2022-11-17T05:13:43.395Z,24.35
2022-11-17T05:16:09.747Z,24.35
2022-11-17T05:18:36.095Z,24.36
2022-11-17T05:21:02.440Z,24.34
2022-11-17T05:23:28.787Z,24.33
2022-11-17T05:25:55.142Z,24.35
2022-11-17T05:28:21.489Z,24.34
2022-11-17T05:30:47.838Z,24.36
2022-11-17T05:33:14.196Z,24.35
2022-11-17T05:35:40.564Z,24.36
2022-11-17T05:38:06.935Z,24.34
2022-11-17T05:40:33.285Z,24.36
2022-11-17T05:42:59.624Z,24.40
2022-11-17T05:45:25.981Z,24.41
2022-11-17T05:47:52.321Z,24.41
2022-11-17T05:50:18.674Z,24.40
2022-11-17T05:52:45.016Z,24.36
2022-11-17T05:55:11.382Z,24.40
2022-11-17T05:57:37.724Z,24.44
2022-11-17T06:00:04.079Z,24.45
2022-11-17T06:02:30.420Z,24.46
2022-11-17T06:04:56.765Z,24.48
2022-11-17T06:07:23.210Z,24.51
2022-11-17T06:09:49.468Z,24.50
2022-11-17T06:12:15.844Z,24.51
2022-11-17T06:14:42.194Z,24.49
2022-11-17T06:17:08.566Z,24.48
2022-11-17T06:19:34.916Z,24.46
2022-11-17T06:22:16.588Z,24.47
2022-11-17T06:24:27.611Z,24.43
2022-11-17T06:26:53.953Z,24.44
2022-11-17T06:29:20.302Z,24.39
2022-11-17T06:31:46.663Z,24.36
2022-11-17T06:34:14.110Z,24.38
2022-11-17T06:36:40.452Z,24.34
2022-11-17T06:39:06.813Z,24.32
2022-11-17T06:41:33.161Z,24.33
2022-11-17T06:43:59.524Z,24.33
2022-11-17T06:46:25.866Z,24.33
2022-11-17T06:48:52.239Z,24.32
2022-11-17T06:51:18.580Z,24.34
2022-11-17T06:53:45.017Z,24.34
2022-11-17T06:56:11.400Z,24.33
2022-11-17T06:58:38.120Z,24.33
2022-11-17T07:01:04.230Z,24.28
2022-11-17T07:03:30.636Z,24.28
2022-11-17T07:05:57.008Z,24.31
2022-11-17T07:08:23.630Z,24.31
2022-11-17T07:10:50.015Z,24.30
2022-11-17T07:13:16.464Z,24.34
2022-11-17T07:15:42.846Z,24.25
2022-11-17T07:18:09.290Z,24.29
2022-11-17T07:20:35.688Z,24.30
2022-11-17T07:23:02.116Z,24.35
2022-11-17T07:25:28.484Z,24.35
2022-11-17T07:27:54.904Z,24.33
2022-11-17T07:30:21.320Z,24.38
2022-11-17T07:32:53.415Z,24.36
2022-11-17T07:35:14.172Z,24.39
2022-11-17T07:37:40.599Z,24.42
2022-11-17T07:40:06.979Z,24.40
2022-11-17T07:42:33.407Z,24.42
2022-11-17T07:44:59.790Z,24.39
2022-11-17T07:47:27.267Z,24.40
2022-11-17T07:49:53.649Z,24.41
2022-11-17T07:52:20.089Z,24.43
2022-11-17T07:54:46.488Z,24.47
2022-11-17T07:57:12.911Z,24.48
2022-11-17T07:59:39.295Z,24.47
2022-11-17T08:02:05.734Z,24.49
2022-11-17T08:04:33.315Z,24.51
2022-11-17T08:06:58.571Z,24.54
2022-11-17T08:09:24.913Z,24.53
2022-11-17T08:11:51.345Z,24.60
2022-11-17T08:14:17.721Z,24.75
2022-11-17T08:16:44.161Z,24.65
2022-11-17T08:19:13.187Z,24.69
2022-11-17T08:21:39.611Z,24.76
2022-11-17T08:24:05.999Z,24.77
2022-11-17T08:26:32.431Z,24.78
2022-11-17T08:28:59.147Z,24.84
2022-11-17T08:31:25.278Z,24.84
2022-11-17T08:33:51.645Z,24.80
2022-11-17T08:36:18.069Z,24.88
2022-11-17T08:38:44.472Z,24.92
2022-11-17T08:41:11.839Z,24.92
2022-11-17T08:43:37.282Z,24.93
2022-11-17T08:46:03.717Z,24.95
2022-11-17T08:48:30.097Z,25.01
2022-11-17T08:50:56.513Z,24.99
2022-11-17T08:53:22.935Z,24.99
2022-11-17T08:55:49.408Z,25.01
2022-11-17T08:58:15.740Z,25.06
2022-11-17T09:00:42.188Z,25.01
2022-11-17T09:03:08.600Z,25.03
2022-11-17T09:05:35.097Z,24.97
2022-11-17T09:08:16.410Z,24.95
2022-11-17T09:10:27.898Z,25.01
2022-11-17T09:12:54.294Z,25.00
2022-11-17T09:15:20.746Z,24.97
2022-11-17T09:17:47.135Z,24.99
2022-11-17T09:20:13.561Z,24.95
2022-11-17T09:22:39.974Z,24.94
2022-11-17T09:25:11.872Z,24.95
2022-11-17T09:27:32.806Z,25.02
2022-11-17T09:29:59.225Z,25.03
2022-11-17T09:32:25.604Z,24.97
2022-11-17T09:34:52.040Z,24.98
2022-11-17T09:37:18.360Z,24.94
2022-11-17T09:39:44.783Z,24.98
2022-11-17T09:42:11.134Z,25.08
2022-11-17T09:44:37.577Z,25.07
2022-11-17T09:47:03.990Z,25.08
2022-11-17T09:49:30.414Z,25.13
2022-11-17T09:51:56.771Z,25.19
2022-11-17T09:54:23.200Z,25.21
2022-11-17T09:56:49.546Z,25.22
2022-11-17T09:59:15.953Z,25.22
2022-11-17T10:01:42.398Z,25.19
2022-11-17T10:04:08.713Z,25.16
2022-11-17T10:06:35.058Z,25.16
2022-11-17T10:09:01.461Z,25.24
2022-11-17T10:11:27.829Z,25.20
2022-11-17T10:13:54.226Z,25.21
2022-11-17T10:16:22.771Z,25.18
2022-11-17T10:18:49.185Z,25.23
2022-11-17T10:21:15.539Z,25.27
2022-11-17T10:23:46.575Z,25.23
2022-11-17T10:26:08.390Z,25.23
2022-11-17T10:28:34.780Z,25.23
2022-11-17T10:31:01.142Z,25.23
2022-11-17T10:33:27.550Z,25.19
2022-11-17T10:35:53.902Z,25.20
2022-11-17T10:38:20.299Z,25.16
2022-11-17T10:40:46.658Z,25.20
2022-11-17T10:43:13.058Z,25.17
2022-11-17T10:45:39.411Z,25.16
2022-11-17T10:48:05.829Z,25.16
2022-11-17T10:50:32.239Z,25.27
2022-11-17T10:52:58.648Z,25.25
2022-11-17T10:55:25.006Z,25.23
2022-11-17T10:57:51.457Z,25.20
2022-11-17T11:00:17.811Z,25.21
2022-11-17T11:02:44.224Z,25.28
2022-11-17T11:05:10.598Z,25.17
2022-11-17T11:07:37.117Z,25.14
2022-11-17T11:10:03.416Z,25.19
2022-11-17T11:12:29.835Z,25.19
2022-11-17T11:14:56.207Z,25.27
2022-11-17T11:17:22.599Z,25.25
2022-11-17T11:19:48.971Z,25.25
2022-11-17T11:22:19.840Z,25.35
2022-11-17T11:24:41.747Z,25.38
2022-11-17T11:27:08.173Z,25.43
2022-11-17T11:29:34.511Z,25.46
2022-11-17T11:32:00.928Z,25.50
2022-11-17T11:34:27.319Z,25.49
2022-11-17T11:36:53.711Z,25.48
2022-11-17T11:39:20.071Z,25.48
2022-11-17T11:41:46.465Z,25.47
2022-11-17T11:44:12.805Z,25.50
2022-11-17T11:46:39.202Z,25.48
2022-11-17T11:49:05.556Z,25.50
2022-11-17T11:51:32.027Z,25.50
2022-11-17T11:53:58.385Z,25.50
2022-11-17T11:56:24.779Z,25.53
2022-11-17T11:58:51.133Z,25.53
2022-11-17T12:01:17.525Z,25.54
2022-11-17T12:03:43.948Z,25.54
2022-11-17T12:06:10.286Z,25.56
2022-11-17T12:08:36.635Z,25.53
2022-11-17T12:11:03.038Z,25.52
2022-11-17T12:13:29.387Z,25.53
2022-11-17T12:15:55.792Z,25.56
2022-11-17T12:18:22.138Z,25.62
2022-11-17T12:20:48.544Z,25.72
2022-11-17T12:23:14.918Z,25.59
2022-11-17T12:25:41.322Z,25.52
2022-11-17T12:28:07.703Z,25.56
2022-11-17T12:30:34.107Z,25.58
2022-11-17T12:33:00.466Z,25.53
2022-11-17T12:35:26.863Z,25.52
2022-11-17T12:37:53.216Z,25.53
2022-11-17T12:40:19.610Z,25.51
2022-11-17T12:42:45.967Z,25.50
2022-11-17T12:45:12.414Z,25.59
2022-11-17T12:47:38.820Z,25.59
2022-11-17T12:50:05.160Z,25.67
2022-11-17T12:52:31.512Z,25.68
2022-11-17T12:54:57.917Z,25.77
2022-11-17T12:57:24.277Z,25.78
2022-11-17T12:59:50.718Z,25.74
2022-11-17T13:02:17.085Z,25.74
2022-11-17T13:04:49.301Z,25.74
2022-11-17T13:07:09.936Z,25.71
2022-11-17T13:09:36.277Z,25.73
2022-11-17T13:12:02.633Z,25.77
2022-11-17T13:14:29.028Z,25.69
2022-11-17T13:16:55.378Z,25.75
2022-11-17T13:19:21.785Z,25.67
2022-11-17T13:21:48.171Z,25.63
2022-11-17T13:24:14.868Z,25.62
2022-11-17T13:26:40.958Z,25.63
2022-11-17T13:29:07.332Z,25.58
2022-11-17T13:31:33.682Z,25.63
2022-11-17T13:34:00.117Z,25.64
2022-11-17T13:36:27.743Z,25.65
2022-11-17T13:38:52.836Z,25.62
2022-11-17T13:41:19.198Z,25.66
2022-11-17T13:43:45.595Z,25.65
2022-11-17T13:46:11.953Z,25.66
2022-11-17T13:48:38.379Z,25.65
2022-11-17T13:51:04.730Z,25.63
2022-11-17T13:53:31.236Z,25.65
2022-11-17T13:55:57.586Z,25.65
2022-11-17T13:58:26.648Z,25.71
2022-11-17T14:00:50.492Z,25.74
2022-11-17T14:03:16.775Z,25.73
2022-11-17T14:05:43.126Z,25.69
2022-11-17T14:08:09.554Z,25.64
2022-11-17T14:10:35.916Z,25.65
2022-11-17T14:13:02.344Z,25.64
2022-11-17T14:15:28.763Z,25.60
2022-11-17T14:17:55.161Z,25.60
2022-11-17T14:20:21.556Z,25.69
2022-11-17T14:22:47.937Z,25.73
2022-11-17T14:25:14.294Z,25.71
2022-11-17T14:27:40.652Z,25.74
2022-11-17T14:30:07.041Z,25.72
2022-11-17T14:32:33.389Z,25.73
2022-11-17T14:34:59.790Z,25.72
2022-11-17T14:37:26.148Z,25.74
2022-11-17T14:39:52.557Z,25.78
2022-11-17T14:42:18.922Z,25.72
2022-11-17T14:44:45.309Z,25.71
2022-11-17T14:47:11.669Z,25.71
2022-11-17T14:49:38.087Z,25.72
2022-11-17T14:52:04.472Z,25.69
2022-11-17T14:54:30.876Z,25.74
2022-11-17T14:56:57.232Z,25.76
2022-11-17T14:59:23.662Z,25.73
2022-11-17T15:01:50.021Z,25.67
2022-11-17T15:04:48.151Z,25.65
2022-11-17T15:06:42.756Z,25.69
2022-11-17T15:09:09.192Z,25.68
2022-11-17T15:11:39.398Z,25.71
2022-11-17T15:14:01.947Z,25.71
2022-11-17T15:16:28.303Z,25.71
2022-11-17T15:18:54.709Z,25.65
2022-11-17T15:21:21.058Z,25.64
2022-11-17T15:23:49.146Z,25.67
2022-11-17T15:26:13.818Z,25.64
2022-11-17T15:28:40.237Z,25.60
2022-11-17T15:31:06.587Z,25.69
2022-11-17T15:33:32.972Z,25.66
2022-11-17T15:35:59.322Z,25.61
2022-11-17T15:38:25.713Z,25.64
2022-11-17T15:40:52.066Z,25.67
2022-11-17T15:43:18.484Z,25.67
2022-11-17T15:45:44.920Z,25.73
2022-11-17T15:48:16.096Z,25.68
2022-11-17T15:50:37.656Z,25.66
2022-11-17T15:53:04.956Z,25.64
2022-11-17T15:55:30.440Z,25.61
2022-11-17T15:57:56.869Z,25.66
2022-11-17T16:00:23.221Z,25.69
2022-11-17T16:02:55.670Z,25.64
2022-11-17T16:05:15.995Z,25.61
2022-11-17T16:07:42.528Z,25.60
2022-11-17T16:10:08.773Z,25.59
2022-11-17T16:12:36.778Z,25.66
2022-11-17T16:15:01.521Z,25.67
2022-11-17T16:17:27.940Z,25.61
2022-11-17T16:19:54.298Z,25.62
2022-11-17T16:22:20.694Z,25.61
2022-11-17T16:24:47.061Z,25.54
2022-11-17T16:27:13.787Z,25.57
2022-11-17T16:29:39.835Z,25.54
2022-11-17T16:32:06.228Z,25.57
2022-11-17T16:34:32.595Z,25.54
2022-11-17T16:36:58.998Z,25.54
2022-11-17T16:39:25.340Z,25.52
2022-11-17T16:41:51.762Z,25.52
2022-11-17T16:44:18.181Z,25.59
2022-11-17T16:46:47.010Z,25.58
2022-11-17T16:49:13.486Z,25.52
2022-11-17T16:51:41.127Z,25.50
2022-11-17T16:54:06.168Z,25.57
2022-11-17T16:56:32.555Z,25.53
2022-11-17T16:58:58.922Z,25.48
2022-11-17T17:01:25.331Z,25.57
2022-11-17T17:03:51.668Z,25.57
2022-11-17T17:06:18.055Z,25.56
2022-11-17T17:08:44.432Z,25.54
2022-11-17T17:11:10.821Z,25.52
2022-11-17T17:13:37.249Z,25.52
2022-11-17T17:16:03.649Z,25.51
2022-11-17T17:18:30.020Z,25.46
2022-11-17T17:20:56.405Z,25.46
2022-11-17T17:23:22.760Z,25.47
2022-11-17T17:25:49.150Z,25.43
2022-11-17T17:28:15.499Z,25.42
2022-11-17T17:30:41.903Z,25.40
2022-11-17T17:33:08.245Z,25.44
2022-11-17T17:35:34.637Z,25.38
2022-11-17T17:38:00.985Z,25.40
2022-11-17T17:40:27.375Z,25.38
2022-11-17T17:42:53.823Z,25.35
2022-11-17T17:45:20.270Z,25.35
2022-11-17T17:47:46.639Z,25.38
2022-11-17T17:50:13.043Z,25.39
2022-11-17T17:52:39.376Z,25.33
2022-11-17T17:55:05.773Z,25.34
2022-11-17T17:57:34.070Z,25.33
2022-11-17T17:59:58.543Z,25.38
2022-11-17T18:02:24.890Z,25.35
2022-11-17T18:04:51.281Z,25.35
2022-11-17T18:07:17.700Z,25.27
2022-11-17T18:09:44.063Z,25.28
2022-11-17T18:12:10.415Z,25.25
2022-11-17T18:14:36.811Z,25.33
2022-11-17T18:17:03.160Z,25.30
2022-11-17T18:19:32.926Z,25.33
2022-11-17T18:21:55.904Z,25.30
2022-11-17T18:24:22.330Z,25.28
2022-11-17T18:26:48.672Z,25.24
2022-11-17T18:29:15.594Z,25.25
2022-11-17T18:31:41.439Z,25.24
2022-11-17T18:34:07.835Z,25.28
2022-11-17T18:36:35.313Z,25.28
2022-11-17T18:39:00.567Z,25.27
2022-11-17T18:41:26.916Z,25.24
2022-11-17T18:43:53.321Z,25.22
2022-11-17T18:46:19.746Z,25.23
2022-11-17T18:48:46.142Z,25.24
2022-11-17T18:51:20.843Z,25.23
2022-11-17T18:53:38.897Z,25.21
2022-11-17T18:56:05.340Z,25.21
2022-11-17T18:58:31.731Z,25.19
2022-11-17T19:00:58.119Z,25.25
2022-11-17T19:03:24.472Z,25.20
2022-11-17T19:05:50.823Z,25.21
2022-11-17T19:08:17.218Z,25.23
2022-11-17T19:10:43.565Z,25.27
2022-11-17T19:13:09.962Z,25.27
2022-11-17T19:15:36.313Z,25.25
2022-11-17T19:18:02.743Z,25.23
2022-11-17T19:20:29.100Z,25.27
2022-11-17T19:22:55.490Z,25.25
2022-11-17T19:25:21.840Z,25.24
2022-11-17T19:27:48.254Z,25.21
2022-11-17T19:30:14.615Z,25.27
2022-11-17T19:32:41.037Z,25.24
2022-11-17T19:35:15.758Z,25.22
2022-11-17T19:37:33.850Z,25.24
2022-11-17T19:40:00.201Z,25.18
2022-11-17T19:42:26.594Z,25.21
2022-11-17T19:44:52.938Z,25.20
2022-11-17T19:47:19.344Z,25.22
2022-11-17T19:49:45.702Z,25.21
2022-11-17T19:52:12.096Z,25.21
2022-11-17T19:54:38.454Z,25.20
2022-11-17T19:57:04.876Z,25.19
2022-11-17T19:59:31.227Z,25.14
2022-11-17T20:01:57.689Z,25.16
2022-11-17T20:04:23.995Z,25.12
2022-11-17T20:06:50.404Z,25.09
2022-11-17T20:09:17.113Z,25.09
2022-11-17T20:11:43.169Z,25.08
2022-11-17T20:14:09.526Z,25.10
2022-11-17T20:16:35.972Z,25.07
2022-11-17T20:19:02.357Z,25.07
2022-11-17T20:21:28.740Z,25.05
2022-11-17T20:23:55.119Z,25.07
2022-11-17T20:26:21.513Z,25.03
2022-11-17T20:28:47.948Z,25.03
2022-11-17T20:31:14.249Z,25.03
2022-11-17T20:33:40.599Z,25.01
2022-11-17T20:36:06.990Z,25.02
2022-11-17T20:38:33.361Z,25.03
2022-11-17T20:40:59.755Z,25.01
2022-11-17T20:43:26.107Z,25.02
2022-11-17T20:45:52.500Z,25.02
2022-11-17T20:48:18.861Z,24.99
2022-11-17T20:50:45.257Z,24.97
2022-11-17T20:53:11.597Z,24.95
2022-11-17T20:55:37.993Z,24.98
2022-11-17T20:58:04.341Z,24.98
2022-11-17T21:00:30.761Z,24.97
2022-11-17T21:02:57.116Z,24.97
2022-11-17T21:05:23.500Z,24.93
2022-11-17T21:07:49.844Z,24.91
2022-11-17T21:10:16.238Z,24.93
2022-11-17T21:12:42.593Z,24.93
2022-11-17T21:15:09.002Z,24.90
2022-11-17T21:17:35.415Z,24.90
2022-11-17T21:20:01.765Z,24.91
2022-11-17T21:22:28.118Z,24.90
2022-11-17T21:24:54.544Z,24.90
2022-11-17T21:27:20.886Z,24.87
2022-11-17T21:29:47.277Z,24.88
2022-11-17T21:32:13.632Z,24.88
2022-11-17T21:34:40.029Z,24.90
2022-11-17T21:37:07.480Z,24.90
2022-11-17T21:39:33.873Z,24.87
2022-11-17T21:42:00.262Z,24.85
2022-11-17T21:44:26.665Z,24.87
2022-11-17T21:46:53.019Z,24.85
2022-11-17T21:49:19.405Z,24.85
2022-11-17T21:51:45.755Z,24.85
2022-11-17T21:54:12.152Z,24.82
2022-11-17T21:56:38.535Z,24.82
2022-11-17T21:59:04.924Z,24.83
2022-11-17T22:01:31.385Z,24.79
2022-11-17T22:03:57.677Z,24.78
2022-11-17T22:06:24.035Z,24.78
2022-11-17T22:08:50.445Z,24.78
2022-11-17T22:11:16.792Z,24.79
2022-11-17T22:13:43.199Z,24.78
2022-11-17T22:16:09.573Z,24.78
2022-11-17T22:18:35.977Z,24.78
2022-11-17T22:21:02.377Z,24.77
2022-11-17T22:23:28.735Z,24.77
2022-11-17T22:25:55.083Z,24.76
2022-11-17T22:28:21.497Z,24.77
2022-11-17T22:30:47.851Z,24.79
2022-11-17T22:33:14.253Z,24.77
2022-11-17T22:35:40.777Z,24.76
2022-11-17T22:38:07.174Z,24.76
2022-11-17T22:40:33.532Z,24.75
2022-11-17T22:43:04.132Z,24.75
2022-11-17T22:45:26.300Z,24.75
2022-11-17T22:47:52.703Z,24.75
2022-11-17T22:50:19.053Z,24.73
2022-11-17T22:52:45.436Z,24.74
2022-11-17T22:55:12.003Z,24.74
2022-11-17T22:57:38.396Z,24.70
2022-11-17T23:00:04.758Z,24.70
2022-11-17T23:02:31.147Z,24.70
2022-11-17T23:04:57.504Z,24.70
2022-11-17T23:07:23.965Z,24.68
2022-11-17T23:09:50.246Z,24.71
2022-11-17T23:12:16.674Z,24.69
2022-11-17T23:14:43.025Z,24.69
2022-11-17T23:17:09.424Z,24.69
2022-11-17T23:19:35.774Z,24.68
2022-11-17T23:22:02.168Z,24.66
2022-11-17T23:24:28.518Z,24.68
2022-11-17T23:26:54.921Z,24.66
2022-11-17T23:29:21.281Z,24.65
2022-11-17T23:31:47.675Z,24.65
2022-11-17T23:34:14.030Z,24.64
2022-11-17T23:36:40.419Z,24.63
2022-11-17T23:39:06.813Z,24.62
2022-11-17T23:41:33.211Z,24.62
2022-11-17T23:43:59.565Z,24.63
2022-11-17T23:46:25.949Z,24.63
2022-11-17T23:48:52.305Z,24.62
2022-11-17T23:51:18.696Z,24.60
2022-11-17T23:53:45.046Z,24.59
2022-11-17T23:56:11.439Z,24.59
2022-11-17T23:58:37.786Z,24.59
